Terminal Aerodrome Forecast
Issued by NWS Omaha/Valley, NE

Home | Current Version | Previous Version | Text Only | Print | Product List | Glossary On
Versions: 1 2 3 4 5 6 7 8 9 10 11 12 13 14 15 16 17 18 19 20 21 22 23 24 25 26 27 28 29 30 31
000
FTUS43 KOAX 252320
TAFOMA
TAF
KOMA 252320Z 2600/2624 02010KT P6SM OVC011
     FM260200 01007KT 6SM BR OVC008
     FM260500 36005KT 4SM BR OVC007
      TEMPO 2610/2614 2SM BR OVC004
     FM261800 34006KT 5SM BR OVC012=

USA.gov is the U.S. government's official web portal to all federal, state and local government web resources and services.